createdAt,value
2023-02-12T00:01:32.780Z,98269.81
2023-02-12T00:04:01.796Z,98264.59
2023-02-12T00:06:30.788Z,98271.31
2023-02-12T00:08:59.180Z,98277.53
2023-02-12T00:11:29.855Z,98277.38
2023-02-12T00:13:58.982Z,98280.91
2023-02-12T00:16:30.127Z,98264.94
2023-02-12T00:19:00.125Z,98261.56
2023-02-12T00:21:30.160Z,98276.19
2023-02-12T00:23:58.885Z,98264.91
2023-02-12T00:26:27.662Z,98262.06
2023-02-12T00:28:56.490Z,98264.59
2023-02-12T00:31:26.846Z,98263.22
2023-02-12T00:34:01.618Z,98267.28
2023-02-12T00:36:32.067Z,98277.03
2023-02-12T00:39:02.181Z,98273.50
2023-02-12T00:41:31.640Z,98267.28
2023-02-12T00:44:00.004Z,98262.41
2023-02-12T00:46:28.917Z,98255.16
2023-02-12T00:48:58.751Z,98253.94
2023-02-12T00:51:27.573Z,98248.22
2023-02-12T00:53:55.934Z,98241.66
2023-02-12T00:56:25.734Z,98252.59
2023-02-12T00:58:54.104Z,98247.88
2023-02-12T01:01:22.909Z,98259.47
2023-02-12T01:03:51.774Z,98263.66
2023-02-12T01:06:22.706Z,98262.66
2023-02-12T01:08:52.497Z,98269.72
2023-02-12T01:11:22.061Z,98274.59
2023-02-12T01:13:50.470Z,98275.06
2023-02-12T01:16:21.722Z,98276.41
2023-02-12T01:18:54.448Z,98275.75
2023-02-12T01:21:29.125Z,98286.34
2023-02-12T01:23:58.434Z,98290.19
2023-02-12T01:26:29.160Z,98294.72
2023-02-12T01:29:01.425Z,98290.34
2023-02-12T01:31:32.824Z,98296.72
2023-02-12T01:34:02.346Z,98290.19
2023-02-12T01:36:32.356Z,98278.75
2023-02-12T01:39:02.843Z,98287.16
2023-02-12T01:41:33.443Z,98269.00
2023-02-12T01:44:08.402Z,98283.09
2023-02-12T01:46:37.627Z,98273.50
2023-02-12T01:49:10.474Z,98279.69
2023-02-12T01:51:42.415Z,98282.38
2023-02-12T01:54:14.336Z,98286.75
2023-02-12T01:56:44.061Z,98280.53
2023-02-12T01:59:13.687Z,98283.72
2023-02-12T02:01:42.323Z,98275.00
2023-02-12T02:04:14.936Z,98276.19
2023-02-12T02:06:52.375Z,98284.75
2023-02-12T02:09:21.109Z,98285.56
2023-02-12T02:12:07.739Z,98282.06
2023-02-12T02:14:36.962Z,98285.44
2023-02-12T02:17:25.519Z,98289.81
2023-02-12T02:20:22.880Z,98288.13
2023-02-12T02:23:09.510Z,98282.22
2023-02-12T02:26:12.552Z,98284.22
2023-02-12T02:29:05.692Z,98274.31
2023-02-12T02:31:42.147Z,98288.75
2023-02-12T02:34:16.371Z,98294.13
2023-02-12T02:37:00.210Z,98293.13
2023-02-12T02:39:39.209Z,98285.91
2023-02-12T02:42:13.938Z,98284.41
2023-02-12T02:44:47.777Z,98290.63
2023-02-12T02:47:21.163Z,98287.41
2023-02-12T02:49:56.226Z,98284.75
2023-02-12T02:52:31.499Z,98284.75
2023-02-12T02:55:06.838Z,98287.75
2023-02-12T02:57:40.551Z,98294.47
2023-02-12T03:00:15.792Z,98285.75
2023-02-12T03:02:52.035Z,98288.06
2023-02-12T03:05:26.014Z,98288.59
2023-02-12T03:08:00.865Z,98284.22
2023-02-12T03:10:34.951Z,98280.00
2023-02-12T03:13:08.387Z,98283.41
2023-02-12T03:15:40.566Z,98289.44
2023-02-12T03:18:14.700Z,98284.22
2023-02-12T03:20:48.845Z,98273.13
2023-02-12T03:23:24.037Z,98289.44
2023-02-12T03:25:59.141Z,98280.53
2023-02-12T03:28:30.994Z,98276.97
2023-02-12T03:31:08.949Z,98291.78
2023-02-12T03:33:46.322Z,98289.81
2023-02-12T03:36:23.953Z,98300.69
2023-02-12T03:38:56.815Z,98311.59
2023-02-12T03:41:32.534Z,98313.44
2023-02-12T03:44:07.868Z,98307.41
2023-02-12T03:46:44.115Z,98313.94
2023-02-12T03:49:22.432Z,98318.59
2023-02-12T03:51:51.590Z,98318.78
2023-02-12T03:54:22.786Z,98322.47
2023-02-12T03:56:55.822Z,98315.59
2023-02-12T03:59:26.432Z,98317.94
2023-02-12T04:01:57.206Z,98318.28
2023-02-12T04:04:28.109Z,98309.47
2023-02-12T04:06:58.011Z,98293.47
2023-02-12T04:09:28.813Z,98324.28
2023-02-12T04:12:11.145Z,98327.78
2023-02-12T04:14:51.159Z,98324.28
2023-02-12T04:17:28.230Z,98326.13
2023-02-12T04:20:09.817Z,98323.38
2023-02-12T04:22:48.175Z,98326.91
2023-02-12T04:25:26.747Z,98326.91
2023-02-12T04:28:02.704Z,98321.84
2023-02-12T04:30:52.442Z,98328.38
2023-02-12T04:33:40.564Z,98329.50
2023-02-12T04:36:25.470Z,98338.94
2023-02-12T04:39:41.126Z,98343.31
2023-02-12T04:42:13.632Z,98337.94
2023-02-12T04:50:42.585Z,98345.16
2023-02-12T04:59:12.951Z,98359.22
2023-02-12T05:19:10.171Z,98359.38
2023-02-12T05:22:18.873Z,98361.06
2023-02-12T05:33:09.602Z,98365.28
2023-02-12T05:36:49.287Z,98369.66
2023-02-12T05:43:01.571Z,98362.91
2023-02-12T06:34:50.315Z,98402.09
2023-02-12T06:54:46.630Z,98413.38
2023-02-12T06:57:15.622Z,98412.84
2023-02-12T06:59:44.446Z,98407.03
2023-02-12T07:02:13.215Z,98421.66
2023-02-12T07:04:41.678Z,98406.00
2023-02-12T07:07:10.439Z,98419.50
2023-02-12T07:09:40.160Z,98418.34
2023-02-12T07:12:09.064Z,98417.38
2023-02-12T07:14:37.601Z,98421.56
2023-02-12T07:17:08.902Z,98419.41
2023-02-12T07:19:38.031Z,98422.63
2023-02-12T07:22:06.942Z,98419.63
2023-02-12T07:24:35.271Z,98415.91
2023-02-12T07:27:06.126Z,98412.78
2023-02-12T07:29:34.680Z,98421.22
2023-02-12T07:32:03.441Z,98424.59
2023-02-12T07:34:32.164Z,98420.59
2023-02-12T07:37:01.414Z,98418.75
2023-02-12T07:39:29.705Z,98429.72
2023-02-12T07:41:58.606Z,98411.88
2023-02-12T07:44:28.340Z,98424.84
2023-02-12T07:46:57.094Z,98418.31
2023-02-12T07:49:25.643Z,98421.69
2023-02-12T07:51:57.188Z,98422.53
2023-02-12T07:54:26.023Z,98422.69
2023-02-12T07:56:55.169Z,98426.22
2023-02-12T07:59:24.204Z,98420.84
2023-02-12T08:01:54.854Z,98418.00
2023-02-12T08:04:25.956Z,98404.34
2023-02-12T08:06:56.358Z,98423.41
2023-02-12T08:09:28.083Z,98415.19
2023-02-12T08:11:56.393Z,98418.88
2023-02-12T08:14:25.232Z,98422.13
2023-02-12T08:16:55.019Z,98420.09
2023-02-12T08:19:26.365Z,98424.13
2023-02-12T08:21:56.607Z,98425.50
2023-02-12T08:24:26.524Z,98425.34
2023-02-12T08:26:55.146Z,98426.03
2023-02-12T08:29:26.230Z,98423.03
2023-02-12T08:31:59.485Z,98421.84
2023-02-12T08:34:29.887Z,98427.06
2023-02-12T08:36:59.192Z,98432.31
2023-02-12T08:39:30.167Z,98423.94
2023-02-12T08:42:00.292Z,98419.94
2023-02-12T08:44:28.980Z,98420.63
2023-02-12T08:46:59.155Z,98430.91
2023-02-12T08:49:29.387Z,98429.56
2023-02-12T08:52:02.126Z,98427.22
2023-02-12T08:54:31.625Z,98432.09
2023-02-12T08:57:02.088Z,98423.06
2023-02-12T08:59:31.418Z,98428.25
2023-02-12T09:02:01.917Z,98428.09
2023-02-12T09:04:31.338Z,98413.59
2023-02-12T09:06:59.690Z,98426.91
2023-02-12T09:09:28.391Z,98422.22
2023-02-12T09:11:57.275Z,98433.00
2023-02-12T09:14:25.918Z,98429.13
2023-02-12T09:16:54.642Z,98433.50
2023-02-12T09:19:25.083Z,98416.31
2023-02-12T09:21:55.991Z,98422.22
2023-02-12T09:24:25.040Z,98436.66
2023-02-12T09:26:53.843Z,98445.94
2023-02-12T09:29:22.150Z,98439.72
2023-02-12T09:31:50.575Z,98450.38
2023-02-12T09:34:19.746Z,98457.09
2023-02-12T09:36:49.511Z,98451.69
2023-02-12T09:39:18.084Z,98446.84
2023-02-12T09:42:28.087Z,98445.31
2023-02-12T09:45:04.541Z,98453.09
2023-02-12T09:47:40.770Z,98456.28
2023-02-12T09:50:28.042Z,98452.56
2023-02-12T09:52:59.243Z,98456.47
2023-02-12T09:55:31.359Z,98461.53
2023-02-12T09:58:02.258Z,98455.31
2023-02-12T10:00:32.407Z,98465.75
2023-02-12T10:03:05.938Z,98463.03
2023-02-12T10:05:42.095Z,98466.09
2023-02-12T10:08:25.610Z,98475.00
2023-02-12T10:11:00.416Z,98473.84
2023-02-12T10:13:40.213Z,98482.25
2023-02-12T10:16:16.069Z,98480.59
2023-02-12T10:19:00.579Z,98482.59
2023-02-12T10:21:43.627Z,98481.59
2023-02-12T10:24:36.925Z,98481.44
2023-02-12T10:27:12.657Z,98464.25
2023-02-12T10:29:43.776Z,98468.81
2023-02-12T10:32:21.703Z,98475.69
2023-02-12T10:34:52.876Z,98475.22
2023-02-12T10:37:29.842Z,98472.19
2023-02-12T10:40:04.796Z,98472.34
2023-02-12T10:42:40.194Z,98479.59
2023-02-12T10:45:15.374Z,98471.34
2023-02-12T10:47:45.564Z,98477.75
2023-02-12T10:50:24.068Z,98475.56
2023-02-12T10:52:57.461Z,98467.66
2023-02-12T10:55:30.366Z,98476.41
2023-02-12T10:58:01.153Z,98471.03
2023-02-12T11:00:32.729Z,98470.66
2023-02-12T11:03:22.023Z,98469.16
2023-02-12T11:05:51.209Z,98466.47
2023-02-12T11:08:31.993Z,98468.00
2023-02-12T11:11:10.279Z,98461.78
2023-02-12T11:13:40.946Z,98468.84
2023-02-12T11:16:10.794Z,98460.75
2023-02-12T11:18:39.796Z,98462.59
2023-02-12T11:21:11.490Z,98459.06
2023-02-12T11:23:41.388Z,98465.13
2023-02-12T11:26:26.838Z,98459.38
2023-02-12T11:28:57.225Z,98443.41
2023-02-12T11:31:28.493Z,98460.56
2023-02-12T11:34:15.578Z,98452.31
2023-02-12T11:36:47.480Z,98455.19
2023-02-12T11:39:22.874Z,98456.53
2023-02-12T11:41:56.499Z,98455.00
2023-02-12T11:44:28.613Z,98451.97
2023-02-12T11:47:02.171Z,98447.59
2023-02-12T11:49:34.668Z,98442.84
2023-02-12T11:52:05.208Z,98447.91
2023-02-12T11:54:40.212Z,98445.34
2023-02-12T11:57:34.739Z,98449.06
2023-02-12T12:00:12.878Z,98449.59
2023-02-12T12:02:59.143Z,98446.16
2023-02-12T12:05:33.086Z,98447.53
2023-02-12T12:08:09.516Z,98447.53
2023-02-12T12:10:43.603Z,98444.78
2023-02-12T12:13:18.779Z,98448.34
2023-02-12T12:16:09.369Z,98443.28
2023-02-12T12:19:04.509Z,98449.31
2023-02-12T12:21:40.785Z,98442.56
2023-02-12T12:24:15.454Z,98447.94
2023-02-12T12:26:50.641Z,98448.13
2023-02-12T12:29:24.207Z,98446.59
2023-02-12T12:32:00.491Z,98447.78
2023-02-12T12:34:29.929Z,98435.31
2023-02-12T12:37:16.524Z,98441.75
2023-02-12T12:39:59.843Z,98441.03
2023-02-12T12:43:04.735Z,98428.91
2023-02-12T12:46:00.465Z,98424.13
2023-02-12T12:48:46.589Z,98419.00
2023-02-12T12:51:30.636Z,98420.44
2023-02-12T12:54:12.107Z,98408.78
2023-02-12T12:56:50.318Z,98421.06
2023-02-12T13:00:02.401Z,98408.09
2023-02-12T13:03:02.405Z,98412.72
2023-02-12T13:06:00.117Z,98414.56
2023-02-12T13:08:40.949Z,98414.88
2023-02-12T13:11:24.497Z,98405.81
2023-02-12T13:14:02.938Z,98413.84
2023-02-12T13:16:36.943Z,98413.97
2023-02-12T13:19:14.262Z,98415.63
2023-02-12T13:21:52.897Z,98417.50
2023-02-12T13:24:28.917Z,98406.25
2023-02-12T13:27:01.774Z,98419.31
2023-02-12T13:29:36.104Z,98416.00
2023-02-12T13:32:10.055Z,98425.25
2023-02-12T13:34:40.755Z,98419.66
2023-02-12T13:37:18.714Z,98424.09
2023-02-12T13:39:50.341Z,98422.13
2023-02-12T13:42:40.910Z,98424.34
2023-02-12T13:45:22.978Z,98412.22
2023-02-12T13:48:02.630Z,98405.84
2023-02-12T13:50:42.578Z,98418.44
2023-02-12T13:53:23.409Z,98417.47
2023-02-12T13:56:08.020Z,98411.25
2023-02-12T13:58:52.042Z,98420.56
2023-02-12T14:01:39.985Z,98408.75
2023-02-12T14:04:29.914Z,98404.16
2023-02-12T14:07:02.075Z,98422.25
2023-02-12T14:09:37.752Z,98413.00
2023-02-12T14:12:10.515Z,98423.56
2023-02-12T14:14:45.572Z,98407.44
2023-02-12T14:17:43.769Z,98412.00
2023-02-12T14:20:24.267Z,98412.84
2023-02-12T14:23:26.657Z,98414.84
2023-02-12T14:26:06.101Z,98403.16
2023-02-12T14:28:48.809Z,98405.72
2023-02-12T14:31:38.811Z,98409.25
2023-02-12T14:34:49.240Z,98416.84
2023-02-12T14:37:38.527Z,98408.22
2023-02-12T14:40:45.689Z,98410.91
2023-02-12T14:44:00.290Z,98412.41
2023-02-12T14:46:46.245Z,98405.66
2023-02-12T14:49:26.737Z,98412.72
2023-02-12T14:51:59.502Z,98408.28
2023-02-12T14:54:34.068Z,98405.50
2023-02-12T14:57:07.889Z,98413.00
2023-02-12T14:59:42.529Z,98409.63
2023-02-12T15:02:18.519Z,98411.03
2023-02-12T15:04:47.082Z,98387.13
2023-02-12T15:07:24.013Z,98403.63
2023-02-12T15:09:57.289Z,98397.69
2023-02-12T15:12:32.726Z,98406.19
2023-02-12T15:15:14.586Z,98399.34
2023-02-12T15:17:54.589Z,98399.25
2023-02-12T15:20:26.202Z,98407.72
2023-02-12T15:22:56.241Z,98401.69
2023-02-12T15:25:27.287Z,98399.72
2023-02-12T15:27:59.482Z,98391.75
2023-02-12T15:30:31.502Z,98386.81
2023-02-12T15:33:05.855Z,98385.78
2023-02-12T15:35:37.215Z,98385.97
2023-02-12T15:38:08.222Z,98381.41
2023-02-12T15:40:36.554Z,98378.44
2023-02-12T15:43:08.739Z,98384.13
2023-02-12T15:45:39.814Z,98382.47
2023-02-12T15:48:14.520Z,98379.00
2023-02-12T15:50:55.026Z,98373.97
2023-02-12T15:53:27.381Z,98377.16
2023-02-12T15:55:56.469Z,98374.16
2023-02-12T15:58:28.022Z,98377.69
2023-02-12T16:01:02.890Z,98372.06
2023-02-12T16:03:33.854Z,98382.69
2023-02-12T16:06:11.387Z,98374.72
2023-02-12T16:08:40.647Z,98361.72
2023-02-12T16:11:14.772Z,98361.59
2023-02-12T16:13:47.219Z,98365.72
2023-02-12T16:16:24.560Z,98371.88
2023-02-12T16:19:08.343Z,98368.94
2023-02-12T16:21:39.292Z,98375.81
2023-02-12T16:24:26.890Z,98368.94
2023-02-12T16:26:56.205Z,98383.91
2023-02-12T16:29:26.018Z,98384.94
2023-02-12T16:31:59.644Z,98381.72
2023-02-12T16:34:31.976Z,98384.47
2023-02-12T16:37:00.346Z,98391.59
2023-02-12T16:40:10.113Z,98394.16
2023-02-12T16:42:38.715Z,98391.00
2023-02-12T16:45:36.226Z,98395.91
2023-02-12T16:48:14.464Z,98394.56
2023-02-12T16:50:49.101Z,98396.94
2023-02-12T16:53:43.509Z,98385.84
2023-02-12T16:56:18.538Z,98390.25
2023-02-12T16:58:48.560Z,98389.28
2023-02-12T17:01:19.661Z,98390.13
2023-02-12T17:03:51.471Z,98389.63
2023-02-12T17:06:21.693Z,98391.97
2023-02-12T17:08:50.453Z,98394.19
2023-02-12T17:11:19.276Z,98388.66
2023-02-12T17:13:49.972Z,98400.63
2023-02-12T17:16:29.798Z,98397.25
2023-02-12T17:19:01.282Z,98399.78
2023-02-12T17:21:32.162Z,98397.09
2023-02-12T17:24:00.642Z,98404.84
2023-02-12T17:26:29.236Z,98397.78
2023-02-12T17:29:05.164Z,98406.69
2023-02-12T17:31:34.753Z,98400.47
2023-02-12T17:34:05.806Z,98396.59
2023-02-12T17:36:34.856Z,98399.94
2023-02-12T17:39:06.337Z,98396.75
2023-02-12T17:41:35.663Z,98399.94
2023-02-12T17:44:04.854Z,98387.31
2023-02-12T17:46:34.215Z,98394.53
2023-02-12T17:49:05.785Z,98388.97
2023-02-12T17:51:44.670Z,98395.84
2023-02-12T17:54:14.386Z,98391.75
2023-02-12T17:56:43.197Z,98390.72
2023-02-12T17:59:11.619Z,98392.91
2023-02-12T18:01:41.399Z,98397.09
2023-02-12T18:04:11.170Z,98395.75
2023-02-12T18:06:39.554Z,98395.22
2023-02-12T18:09:07.859Z,98394.91
2023-02-12T18:11:38.365Z,98413.38
2023-02-12T18:14:06.958Z,98413.38
2023-02-12T18:16:36.512Z,98404.66
2023-02-12T18:19:05.962Z,98408.94
2023-02-12T18:21:35.844Z,98408.22
2023-02-12T18:24:05.370Z,98407.34
2023-02-12T18:26:33.922Z,98416.03
2023-02-12T18:29:03.197Z,98409.31
2023-02-12T18:31:32.155Z,98410.63
2023-02-12T18:34:01.077Z,98412.59
2023-02-12T18:36:29.529Z,98411.03
2023-02-12T18:39:01.402Z,98420.44
2023-02-12T18:41:33.462Z,98417.38
2023-02-12T18:44:01.789Z,98414.50
2023-02-12T18:46:33.372Z,98411.69
2023-02-12T18:49:03.725Z,98415.31
2023-02-12T18:51:36.599Z,98406.69
2023-02-12T18:54:12.577Z,98408.81
2023-02-12T18:56:44.013Z,98407.47
2023-02-12T18:59:16.104Z,98407.75
2023-02-12T19:01:46.381Z,98404.69
2023-02-12T19:04:17.125Z,98410.53
2023-02-12T19:06:47.804Z,98408.69
2023-02-12T19:09:20.666Z,98406.69
2023-02-12T19:11:50.498Z,98404.34
2023-02-12T19:14:21.450Z,98405.09
2023-02-12T19:16:50.222Z,98400.97
2023-02-12T19:19:21.044Z,98392.31
2023-02-12T19:21:49.642Z,98392.63
2023-02-12T19:24:19.988Z,98402.75
2023-02-12T19:26:52.229Z,98388.09
2023-02-12T19:29:20.547Z,98394.78
2023-02-12T19:31:49.696Z,98394.00
2023-02-12T19:34:20.658Z,98395.16
2023-02-12T19:36:50.860Z,98400.81
2023-02-12T19:39:22.718Z,98391.47
2023-02-12T19:41:52.045Z,98401.66
2023-02-12T19:44:23.244Z,98403.81
2023-02-12T19:46:52.025Z,98407.78
2023-02-12T19:49:23.151Z,98415.97
2023-02-12T19:51:51.826Z,98412.44
2023-02-12T19:54:24.502Z,98405.84
2023-02-12T19:56:53.314Z,98406.16
2023-02-12T19:59:24.203Z,98413.88
2023-02-12T20:01:52.801Z,98411.38
2023-02-12T20:04:24.134Z,98416.28
2023-02-12T20:06:53.283Z,98416.41
2023-02-12T20:09:23.744Z,98418.41
2023-02-12T20:11:53.945Z,98422.41
2023-02-12T20:14:22.806Z,98420.56
2023-02-12T20:16:52.710Z,98420.56
2023-02-12T20:19:25.836Z,98423.53
2023-02-12T20:21:57.157Z,98417.31
2023-02-12T20:24:28.741Z,98423.41
2023-02-12T20:26:59.588Z,98417.16
2023-02-12T20:29:28.790Z,98426.38
2023-02-12T20:31:58.213Z,98425.38
2023-02-12T20:34:27.225Z,98416.66
2023-02-12T20:36:55.878Z,98420.00
2023-02-12T20:39:28.209Z,98419.75
2023-02-12T20:41:56.958Z,98426.03
2023-02-12T20:44:25.631Z,98431.81
2023-02-12T20:46:57.202Z,98432.66
2023-02-12T20:49:26.199Z,98429.03
2023-02-12T20:51:56.532Z,98435.50
2023-02-12T20:54:25.867Z,98423.69
2023-02-12T20:56:56.080Z,98435.22
2023-02-12T20:59:24.430Z,98423.91
2023-02-12T21:01:53.278Z,98422.91
2023-02-12T21:04:21.680Z,98420.22
2023-02-12T21:06:52.195Z,98417.84
2023-02-12T21:09:20.535Z,98417.56
2023-02-12T21:11:50.780Z,98424.28
2023-02-12T21:14:23.514Z,98416.25
2023-02-12T21:16:54.816Z,98415.72
2023-02-12T21:19:24.325Z,98414.31
2023-02-12T21:21:53.911Z,98416.06
2023-02-12T21:24:25.052Z,98413.81
2023-02-12T21:26:55.338Z,98414.56
2023-02-12T21:29:26.678Z,98424.41
2023-02-12T21:31:55.640Z,98427.31
2023-02-12T21:34:24.600Z,98414.78
2023-02-12T21:36:55.773Z,98419.41
2023-02-12T21:39:27.513Z,98423.09
2023-02-12T21:42:01.209Z,98421.09
2023-02-12T21:44:32.380Z,98415.91
2023-02-12T21:47:00.790Z,98419.72
2023-02-12T21:49:29.510Z,98420.88
2023-02-12T21:52:02.545Z,98410.03
2023-02-12T21:54:31.683Z,98419.41
2023-02-12T21:57:00.956Z,98413.34
2023-02-12T21:59:32.452Z,98410.56
2023-02-12T22:02:01.917Z,98416.78
2023-02-12T22:04:30.715Z,98413.81
2023-02-12T22:07:03.012Z,98412.09
2023-02-12T22:09:31.715Z,98414.78
2023-02-12T22:12:00.696Z,98411.13
2023-02-12T22:14:29.627Z,98415.50
2023-02-12T22:16:59.989Z,98406.06
2023-02-12T22:19:28.365Z,98413.00
2023-02-12T22:21:57.655Z,98419.50
2023-02-12T22:24:26.001Z,98419.13
2023-02-12T22:26:56.322Z,98418.72
2023-02-12T22:29:24.766Z,98416.78
2023-02-12T22:31:53.888Z,98418.16
2023-02-12T22:34:23.598Z,98422.94
2023-02-12T22:36:52.782Z,98422.81
2023-02-12T22:39:22.290Z,98430.81
2023-02-12T22:41:51.448Z,98427.72
2023-02-12T22:44:21.296Z,98431.94
2023-02-12T22:46:50.119Z,98428.72
2023-02-12T22:49:19.254Z,98432.13
2023-02-12T22:51:48.981Z,98427.44
2023-02-12T22:54:19.075Z,98427.88
2023-02-12T22:56:51.469Z,98430.81
2023-02-12T22:59:20.780Z,98438.00
2023-02-12T23:01:49.606Z,98427.72
2023-02-12T23:04:19.277Z,98438.59
2023-02-12T23:06:49.845Z,98438.00
2023-02-12T23:09:20.185Z,98436.88
2023-02-12T23:11:49.585Z,98438.41
2023-02-12T23:14:19.498Z,98438.84
2023-02-12T23:16:48.283Z,98430.28
2023-02-12T23:19:16.764Z,98432.38
2023-02-12T23:21:45.265Z,98423.25
2023-02-12T23:24:16.089Z,98423.25
2023-02-12T23:26:44.945Z,98424.69
2023-02-12T23:29:13.595Z,98413.56
2023-02-12T23:31:43.019Z,98423.56
2023-02-12T23:34:12.341Z,98422.28
2023-02-12T23:36:43.749Z,98417.78
2023-02-12T23:39:16.340Z,98416.78
2023-02-12T23:41:44.773Z,98413.97
2023-02-12T23:44:14.092Z,98411.31
2023-02-12T23:46:43.187Z,98408.19
2023-02-12T23:49:11.581Z,98401.44
2023-02-12T23:51:39.884Z,98407.19
2023-02-12T23:54:08.281Z,98408.59
2023-02-12T23:56:38.889Z,98404.50
2023-02-12T23:59:07.232Z,98402.66
